createdAt,value
2023-02-07T00:01:23.038Z,153.53
2023-02-07T00:03:54.405Z,204.50
2023-02-07T00:06:25.148Z,496.00
2023-02-07T00:08:53.972Z,301.23
2023-02-07T00:11:23.503Z,191.17
2023-02-07T00:13:55.110Z,241.43
2023-02-07T00:16:25.526Z,202.00
2023-02-07T00:18:59.700Z,136.57
2023-02-07T00:21:28.890Z,121.17
2023-02-07T00:23:57.322Z,212.33
2023-02-07T00:26:27.171Z,221.90
2023-02-07T00:28:56.493Z,315.50
2023-02-07T00:31:27.300Z,124.10
2023-02-07T00:33:58.389Z,193.20
2023-02-07T00:36:28.111Z,286.67
2023-02-07T00:38:58.754Z,567.10
2023-02-07T00:41:27.305Z,154.00
2023-02-07T00:43:56.174Z,573.77
2023-02-07T00:46:24.546Z,337.00
2023-02-07T00:48:52.541Z,717.97
2023-02-07T00:51:22.037Z,505.50
2023-02-07T00:53:50.184Z,185.67
2023-02-07T00:56:18.212Z,498.67
2023-02-07T00:58:46.208Z,753.57
2023-02-07T01:01:15.150Z,231.17
2023-02-07T01:03:43.576Z,267.00
2023-02-07T01:06:11.831Z,550.50
2023-02-07T01:08:41.255Z,432.80
2023-02-07T01:11:11.913Z,152.40
2023-02-07T01:13:40.038Z,633.90
2023-02-07T01:16:08.342Z,218.37
2023-02-07T01:18:36.366Z,625.77
2023-02-07T01:21:14.302Z,346.57
2023-02-07T01:23:43.749Z,334.57
2023-02-07T01:26:12.026Z,403.83
2023-02-07T01:28:40.108Z,260.47
2023-02-07T01:31:09.635Z,387.40
2023-02-07T01:33:38.703Z,628.00
2023-02-07T01:36:11.134Z,231.70
2023-02-07T01:38:39.150Z,325.73
2023-02-07T01:41:08.899Z,955.47
2023-02-07T01:43:37.251Z,267.63
2023-02-07T01:46:05.481Z,173.33
2023-02-07T01:48:37.805Z,155.97
2023-02-07T01:51:09.019Z,404.53
2023-02-07T01:53:39.830Z,189.17
2023-02-07T01:56:22.724Z,519.70
2023-02-07T01:58:54.816Z,146.10
2023-02-07T02:01:25.948Z,321.40
2023-02-07T02:03:56.237Z,125.53
2023-02-07T02:06:27.404Z,165.17
2023-02-07T02:08:58.457Z,149.03
2023-02-07T02:11:46.095Z,217.20
2023-02-07T02:14:24.104Z,205.57
2023-02-07T02:17:03.273Z,457.50
2023-02-07T02:20:00.892Z,149.30
2023-02-07T02:22:56.776Z,520.03
2023-02-07T02:25:47.192Z,507.20
2023-02-07T02:28:49.778Z,215.90
2023-02-07T02:31:39.716Z,134.43
2023-02-07T02:34:18.496Z,121.70
2023-02-07T02:36:53.446Z,442.07
2023-02-07T02:39:26.460Z,153.87
2023-02-07T02:41:59.375Z,352.20
2023-02-07T02:44:34.211Z,277.53
2023-02-07T02:47:04.012Z,158.50
2023-02-07T02:49:35.645Z,112.40
2023-02-07T02:52:04.044Z,556.63
2023-02-07T02:54:34.179Z,265.53
2023-02-07T02:57:17.693Z,271.37
2023-02-07T03:00:10.956Z,131.47
2023-02-07T03:02:48.871Z,458.40
2023-02-07T03:05:32.030Z,287.00
2023-02-07T03:08:06.174Z,246.60
2023-02-07T03:10:39.878Z,515.80
2023-02-07T03:13:16.250Z,329.80
2023-02-07T03:15:55.285Z,618.03
2023-02-07T03:18:29.404Z,999.90
2023-02-07T03:21:06.977Z,568.60
2023-02-07T03:23:36.517Z,375.17
2023-02-07T03:26:06.035Z,173.83
2023-02-07T03:28:35.461Z,250.10
2023-02-07T03:31:05.663Z,291.57
2023-02-07T03:33:34.368Z,676.07
2023-02-07T03:36:11.265Z,775.47
2023-02-07T03:38:39.925Z,261.53
2023-02-07T03:41:14.314Z,169.97
2023-02-07T03:43:43.682Z,451.80
2023-02-07T03:46:12.588Z,273.83
2023-02-07T03:48:40.657Z,384.67
2023-02-07T03:51:10.068Z,923.77
2023-02-07T03:53:38.073Z,622.77
2023-02-07T03:56:06.846Z,555.93
2023-02-07T03:58:34.869Z,709.00
2023-02-07T04:01:02.946Z,745.10
2023-02-07T04:03:30.987Z,298.10
2023-02-07T04:05:59.015Z,776.33
2023-02-07T04:08:28.397Z,299.23
2023-02-07T04:11:00.311Z,989.87
2023-02-07T04:13:28.717Z,283.77
2023-02-07T04:15:57.214Z,314.57
2023-02-07T04:18:25.244Z,136.30
2023-02-07T04:20:53.321Z,209.50
2023-02-07T04:23:21.285Z,451.70
2023-02-07T04:25:50.713Z,242.83
2023-02-07T04:28:18.731Z,302.97
2023-02-07T04:30:46.878Z,137.23
2023-02-07T04:33:14.924Z,300.17
2023-02-07T04:35:42.956Z,999.90
2023-02-07T04:38:11.385Z,568.93
2023-02-07T04:40:40.588Z,380.63
2023-02-07T04:43:09.978Z,309.17
2023-02-07T04:45:38.253Z,337.60
2023-02-07T04:48:06.864Z,730.50
2023-02-07T04:50:34.885Z,351.23
2023-02-07T04:53:02.899Z,548.60
2023-02-07T04:55:30.891Z,388.87
2023-02-07T04:57:58.887Z,396.90
2023-02-07T05:00:28.458Z,324.50
2023-02-07T05:02:56.458Z,627.13
2023-02-07T05:05:24.484Z,234.00
2023-02-07T05:07:52.557Z,999.90
2023-02-07T05:10:20.582Z,547.67
2023-02-07T05:12:48.583Z,712.17
2023-02-07T05:15:16.777Z,455.47
2023-02-07T05:17:46.345Z,674.00
2023-02-07T05:20:14.380Z,390.67
2023-02-07T05:22:42.406Z,890.50
2023-02-07T05:25:10.475Z,501.20
2023-02-07T05:27:38.558Z,983.10
2023-02-07T05:30:08.390Z,707.43
2023-02-07T05:32:54.118Z,312.10
2023-02-07T05:35:23.537Z,565.73
2023-02-07T05:37:51.521Z,425.93
2023-02-07T05:40:19.735Z,210.00
2023-02-07T05:42:47.715Z,999.90
2023-02-07T05:45:15.861Z,551.43
2023-02-07T05:47:43.850Z,355.70
2023-02-07T05:50:11.896Z,459.53
2023-02-07T05:52:41.280Z,364.90
2023-02-07T05:55:10.725Z,375.27
2023-02-07T05:57:38.755Z,331.87
2023-02-07T06:00:07.518Z,427.60
2023-02-07T06:02:35.543Z,458.13
2023-02-07T06:05:03.554Z,215.47
2023-02-07T06:07:31.800Z,359.63
2023-02-07T06:10:01.240Z,358.47
2023-02-07T06:12:29.287Z,559.53
2023-02-07T06:14:57.292Z,333.53
2023-02-07T06:17:25.680Z,363.40
2023-02-07T06:19:53.813Z,508.50
2023-02-07T06:22:21.898Z,595.93
2023-02-07T06:24:49.917Z,603.60
2023-02-07T06:27:19.381Z,587.43
2023-02-07T06:29:47.490Z,668.67
2023-02-07T06:32:15.494Z,363.93
2023-02-07T06:34:43.489Z,379.63
2023-02-07T06:37:11.520Z,310.30
2023-02-07T06:39:39.520Z,811.30
2023-02-07T06:42:07.515Z,607.90
2023-02-07T06:44:36.983Z,617.13
2023-02-07T06:47:05.524Z,431.40
2023-02-07T06:49:33.486Z,449.10
2023-02-07T06:52:01.522Z,438.10
2023-02-07T06:54:29.534Z,610.53
2023-02-07T06:56:57.541Z,537.07
2023-02-07T06:59:25.520Z,330.23
2023-02-07T07:01:55.036Z,942.70
2023-02-07T07:04:23.045Z,587.20
2023-02-07T07:06:51.068Z,479.87
2023-02-07T07:09:19.356Z,866.83
2023-02-07T07:11:47.400Z,650.07
2023-02-07T07:14:15.677Z,361.73
2023-02-07T07:16:43.724Z,470.57
2023-02-07T07:19:13.254Z,326.03
2023-02-07T07:21:41.351Z,540.87
2023-02-07T07:24:09.520Z,449.23
2023-02-07T07:26:48.816Z,263.93
2023-02-07T07:29:17.265Z,396.57
2023-02-07T07:31:45.717Z,356.37
2023-02-07T07:34:15.528Z,128.07
2023-02-07T07:36:43.760Z,63.17
2023-02-07T07:39:11.850Z,842.40
2023-02-07T07:41:39.942Z,169.20
2023-02-07T07:44:08.002Z,124.50
2023-02-07T07:46:36.033Z,181.10
2023-02-07T07:49:04.071Z,145.53
2023-02-07T07:51:33.648Z,300.53
2023-02-07T07:54:01.669Z,212.67
2023-02-07T07:56:30.439Z,171.70
2023-02-07T07:58:58.478Z,188.07
2023-02-07T08:01:26.473Z,167.77
2023-02-07T08:03:54.519Z,264.67
2023-02-07T08:06:22.595Z,168.23
2023-02-07T08:08:51.965Z,200.87
2023-02-07T08:11:20.252Z,157.13
2023-02-07T08:13:49.032Z,715.93
2023-02-07T08:16:17.938Z,999.90
2023-02-07T08:18:45.963Z,286.23
2023-02-07T08:21:14.031Z,110.03
2023-02-07T08:23:42.019Z,110.37
2023-02-07T08:26:11.657Z,238.00
2023-02-07T08:28:39.814Z,145.60
2023-02-07T08:31:08.198Z,176.93
2023-02-07T08:33:36.220Z,205.27
2023-02-07T08:36:08.137Z,108.10
2023-02-07T08:38:36.167Z,268.93
2023-02-07T08:41:04.186Z,95.60
2023-02-07T08:43:33.650Z,93.97
2023-02-07T08:46:01.847Z,200.40
2023-02-07T08:48:29.979Z,207.40
2023-02-07T08:51:00.910Z,247.57
2023-02-07T08:53:28.940Z,114.43
2023-02-07T08:55:56.972Z,198.83
2023-02-07T08:58:25.424Z,124.57
2023-02-07T09:00:54.867Z,142.13
2023-02-07T09:03:22.933Z,89.97
2023-02-07T09:05:50.938Z,267.73
2023-02-07T09:08:19.074Z,185.10
2023-02-07T09:10:49.263Z,126.30
2023-02-07T09:13:17.355Z,283.20
2023-02-07T09:15:45.390Z,184.13
2023-02-07T09:18:14.777Z,179.70
2023-02-07T09:20:42.768Z,216.17
2023-02-07T09:23:19.713Z,210.20
2023-02-07T09:25:49.351Z,255.70
2023-02-07T09:28:18.163Z,303.27
2023-02-07T09:30:47.426Z,115.80
2023-02-07T09:33:17.666Z,392.43
2023-02-07T09:35:47.692Z,356.83
2023-02-07T09:38:18.547Z,168.73
2023-02-07T09:40:48.092Z,267.47
2023-02-07T09:43:29.458Z,175.07
2023-02-07T09:46:03.539Z,161.17
2023-02-07T09:48:44.455Z,314.10
2023-02-07T09:51:14.516Z,184.67
2023-02-07T09:53:45.971Z,211.57
2023-02-07T09:56:17.901Z,413.93
2023-02-07T09:58:53.375Z,168.53
2023-02-07T10:01:23.726Z,213.77
2023-02-07T10:04:05.912Z,110.70
2023-02-07T10:06:36.064Z,445.60
2023-02-07T10:09:04.510Z,490.13
2023-02-07T10:11:46.308Z,94.93
2023-02-07T10:14:28.009Z,253.30
2023-02-07T10:17:12.187Z,213.90
2023-02-07T10:19:55.431Z,343.50
2023-02-07T10:22:28.015Z,345.90
2023-02-07T10:25:13.013Z,515.83
2023-02-07T10:27:49.601Z,209.47
2023-02-07T10:30:22.044Z,543.23
2023-02-07T10:32:52.166Z,290.37
2023-02-07T10:35:25.657Z,329.20
2023-02-07T10:37:57.782Z,402.10
2023-02-07T10:40:30.578Z,586.57
2023-02-07T10:43:03.983Z,706.20
2023-02-07T10:45:32.163Z,733.37
2023-02-07T10:48:00.302Z,483.83
2023-02-07T10:50:30.843Z,580.47
2023-02-07T10:53:00.138Z,557.13
2023-02-07T10:55:40.696Z,398.60
2023-02-07T10:58:22.889Z,601.30
2023-02-07T11:00:52.962Z,554.17
2023-02-07T11:03:23.126Z,527.13
2023-02-07T11:05:58.323Z,410.80
2023-02-07T11:08:28.405Z,833.43
2023-02-07T11:10:58.144Z,856.53
2023-02-07T11:13:29.481Z,820.43
2023-02-07T11:16:01.724Z,609.60
2023-02-07T11:18:45.457Z,791.37
2023-02-07T11:21:28.286Z,858.07
2023-02-07T11:24:01.214Z,975.73
2023-02-07T11:26:31.322Z,990.70
2023-02-07T11:29:07.772Z,992.83
2023-02-07T11:31:38.841Z,928.30
2023-02-07T11:34:23.209Z,999.90
2023-02-07T11:36:52.841Z,999.90
2023-02-07T11:39:23.103Z,786.63
2023-02-07T11:41:56.215Z,999.90
2023-02-07T11:44:26.425Z,846.27
2023-02-07T11:46:59.130Z,999.90
2023-02-07T11:49:30.315Z,908.13
2023-02-07T11:52:02.752Z,846.43
2023-02-07T11:54:32.219Z,978.13
2023-02-07T11:57:03.771Z,795.30
2023-02-07T11:59:33.530Z,789.60
2023-02-07T12:02:08.598Z,933.67
2023-02-07T12:04:39.760Z,874.00
2023-02-07T12:07:14.880Z,933.03
2023-02-07T12:09:48.687Z,999.90
2023-02-07T12:12:20.662Z,999.90
2023-02-07T12:14:55.661Z,999.90
2023-02-07T12:17:29.092Z,999.17
2023-02-07T12:20:04.512Z,999.90
2023-02-07T12:22:44.395Z,989.50
2023-02-07T12:25:20.388Z,999.90
2023-02-07T12:27:51.473Z,968.43
2023-02-07T12:30:25.858Z,999.90
2023-02-07T12:33:00.743Z,999.90
2023-02-07T12:35:33.777Z,999.90
2023-02-07T12:38:16.371Z,999.90
2023-02-07T12:40:49.077Z,999.90
2023-02-07T12:43:24.146Z,999.90
2023-02-07T12:46:07.377Z,999.90
2023-02-07T12:48:50.211Z,999.90
2023-02-07T12:51:29.718Z,999.90
2023-02-07T12:54:10.500Z,999.90
2023-02-07T12:56:45.837Z,999.90
2023-02-07T12:59:25.646Z,999.90
2023-02-07T13:02:05.412Z,999.90
2023-02-07T13:04:58.651Z,999.90
2023-02-07T13:07:40.488Z,999.90
2023-02-07T13:10:21.634Z,999.90
2023-02-07T13:12:54.531Z,999.90
2023-02-07T13:15:33.488Z,999.90
2023-02-07T13:18:07.281Z,999.90
2023-02-07T13:20:55.172Z,999.90
2023-02-07T13:23:25.483Z,999.90
2023-02-07T13:25:58.918Z,999.90
2023-02-07T13:28:32.545Z,999.90
2023-02-07T13:31:01.796Z,999.90
2023-02-07T13:33:35.346Z,999.90
2023-02-07T13:36:12.426Z,999.90
2023-02-07T13:39:03.382Z,999.90
2023-02-07T13:41:41.501Z,999.90
2023-02-07T13:44:20.406Z,999.90
2023-02-07T13:47:12.789Z,999.90
2023-02-07T13:49:48.665Z,999.90
2023-02-07T13:52:27.072Z,999.90
2023-02-07T13:55:04.721Z,999.90
2023-02-07T13:58:02.132Z,999.90
2023-02-07T14:00:32.443Z,999.90
2023-02-07T14:03:03.542Z,999.90
2023-02-07T14:05:34.463Z,999.90
2023-02-07T14:08:05.436Z,999.90
2023-02-07T14:10:45.594Z,999.90
2023-02-07T14:13:29.284Z,999.90
2023-02-07T14:16:03.649Z,999.90
2023-02-07T14:18:50.879Z,999.90
2023-02-07T14:21:40.928Z,999.90
2023-02-07T14:24:32.360Z,999.90
2023-02-07T14:27:05.845Z,999.90
2023-02-07T14:29:56.052Z,999.90
2023-02-07T14:32:30.617Z,999.90
2023-02-07T14:35:05.541Z,999.90
2023-02-07T14:37:53.936Z,999.90
2023-02-07T14:40:25.855Z,999.90
2023-02-07T14:43:00.294Z,999.90
2023-02-07T14:45:32.294Z,999.90
2023-02-07T14:48:00.564Z,999.90
2023-02-07T14:50:33.538Z,999.90
2023-02-07T14:53:04.488Z,999.90
2023-02-07T14:55:36.187Z,999.90
2023-02-07T14:58:08.565Z,999.90
2023-02-07T15:00:42.295Z,999.90
2023-02-07T15:03:14.537Z,999.90
2023-02-07T15:05:51.323Z,999.90
2023-02-07T15:08:21.907Z,999.90
2023-02-07T15:10:56.774Z,999.90
2023-02-07T15:13:29.530Z,999.90
2023-02-07T15:16:02.554Z,999.90
2023-02-07T15:18:34.403Z,999.90
2023-02-07T15:21:03.611Z,999.90
2023-02-07T15:23:32.595Z,999.90
2023-02-07T15:26:07.094Z,999.90
2023-02-07T15:28:35.695Z,926.47
2023-02-07T15:31:07.437Z,999.90
2023-02-07T15:33:39.078Z,999.90
2023-02-07T15:36:08.667Z,999.90
2023-02-07T15:38:36.825Z,999.90
2023-02-07T15:41:05.288Z,999.90
2023-02-07T15:43:34.867Z,999.90
2023-02-07T15:46:08.472Z,999.90
2023-02-07T15:48:48.490Z,999.90
2023-02-07T15:51:19.230Z,999.90
2023-02-07T15:53:52.108Z,999.90
2023-02-07T15:56:20.357Z,999.90
2023-02-07T15:58:50.677Z,999.90
2023-02-07T16:01:25.209Z,949.63
2023-02-07T16:03:57.077Z,999.90
2023-02-07T16:06:26.744Z,613.27
2023-02-07T16:08:57.014Z,779.20
2023-02-07T16:11:37.207Z,999.90
2023-02-07T16:14:17.521Z,833.00
2023-02-07T16:16:51.098Z,925.77
2023-02-07T16:19:20.798Z,974.43
2023-02-07T16:21:54.249Z,947.00
2023-02-07T16:24:27.535Z,855.43
2023-02-07T16:26:57.131Z,705.83
2023-02-07T16:29:26.472Z,655.57
2023-02-07T16:31:56.572Z,737.37
2023-02-07T16:34:25.187Z,750.10
2023-02-07T16:36:54.727Z,999.90
2023-02-07T16:39:24.233Z,629.23
2023-02-07T16:41:56.019Z,756.23
2023-02-07T16:44:26.524Z,999.90
2023-02-07T16:46:55.930Z,999.90
2023-02-07T16:49:26.412Z,971.83
2023-02-07T16:51:55.086Z,999.90
2023-02-07T16:54:23.667Z,938.33
2023-02-07T16:56:54.533Z,988.23
2023-02-07T16:59:24.310Z,999.90
2023-02-07T17:01:54.310Z,999.90
2023-02-07T17:04:23.851Z,981.43
2023-02-07T17:06:52.091Z,986.80
2023-02-07T17:09:22.175Z,825.13
2023-02-07T17:11:50.167Z,999.90
2023-02-07T17:14:18.227Z,831.90
2023-02-07T17:16:46.368Z,543.57
2023-02-07T17:19:15.673Z,776.10
2023-02-07T17:21:45.389Z,758.63
2023-02-07T17:24:14.260Z,611.50
2023-02-07T17:26:44.782Z,879.97
2023-02-07T17:29:14.151Z,767.13
2023-02-07T17:31:42.662Z,999.90
2023-02-07T17:34:11.205Z,872.20
2023-02-07T17:36:41.554Z,577.67
2023-02-07T17:39:14.313Z,639.47
2023-02-07T17:41:42.362Z,674.37
2023-02-07T17:44:10.540Z,870.73
2023-02-07T17:46:38.683Z,900.93
2023-02-07T17:49:13.704Z,859.73
2023-02-07T17:51:41.777Z,999.00
2023-02-07T17:54:09.823Z,906.27
2023-02-07T17:56:39.271Z,500.07
2023-02-07T17:59:10.104Z,427.83
2023-02-07T18:01:38.152Z,727.77
2023-02-07T18:04:06.418Z,790.87
2023-02-07T18:06:34.444Z,922.37
2023-02-07T18:09:02.495Z,825.80
2023-02-07T18:11:31.260Z,966.40
2023-02-07T18:14:01.868Z,905.60
2023-02-07T18:16:29.994Z,647.23
2023-02-07T18:18:58.314Z,713.80
2023-02-07T18:21:27.745Z,354.20
2023-02-07T18:23:56.364Z,725.17
2023-02-07T18:26:24.616Z,776.27
2023-02-07T18:28:52.829Z,927.50
2023-02-07T18:31:24.496Z,556.63
2023-02-07T18:33:53.428Z,608.77
2023-02-07T18:36:22.726Z,510.83
2023-02-07T18:38:51.111Z,382.43
2023-02-07T18:41:23.647Z,457.27
2023-02-07T18:43:52.181Z,247.93
2023-02-07T18:46:22.479Z,195.00
2023-02-07T18:48:55.666Z,230.20
2023-02-07T18:51:24.246Z,606.30
2023-02-07T18:53:54.466Z,502.47
2023-02-07T18:56:24.460Z,540.97
2023-02-07T18:58:56.549Z,647.83
2023-02-07T19:01:27.933Z,478.87
2023-02-07T19:03:58.400Z,568.47
2023-02-07T19:06:27.969Z,704.17
2023-02-07T19:08:56.354Z,626.97
2023-02-07T19:11:24.533Z,518.03
2023-02-07T19:13:52.562Z,828.20
2023-02-07T19:16:22.849Z,575.10
2023-02-07T19:18:52.409Z,512.63
2023-02-07T19:21:26.565Z,264.77
2023-02-07T19:23:55.710Z,462.67
2023-02-07T19:26:24.556Z,252.00
2023-02-07T19:28:53.732Z,469.27
2023-02-07T19:31:22.594Z,904.33
2023-02-07T19:33:53.448Z,944.10
2023-02-07T19:36:23.160Z,693.87
2023-02-07T19:38:53.750Z,499.93
2023-02-07T19:41:22.546Z,441.03
2023-02-07T19:43:50.857Z,502.93
2023-02-07T19:46:19.691Z,719.77
2023-02-07T19:48:48.609Z,527.73
2023-02-07T19:51:20.879Z,579.93
2023-02-07T19:53:51.269Z,319.67
2023-02-07T19:56:20.917Z,596.53
2023-02-07T19:58:50.436Z,431.57
2023-02-07T20:01:19.394Z,437.37
2023-02-07T20:03:51.207Z,276.80
2023-02-07T20:06:23.539Z,339.77
2023-02-07T20:08:52.030Z,530.57
2023-02-07T20:11:21.542Z,378.60
2023-02-07T20:13:52.137Z,444.50
2023-02-07T20:16:22.039Z,441.73
2023-02-07T20:18:52.051Z,298.60
2023-02-07T20:21:24.279Z,459.00
2023-02-07T20:23:53.497Z,401.83
2023-02-07T20:26:25.383Z,380.80
2023-02-07T20:28:53.462Z,319.83
2023-02-07T20:31:24.020Z,534.87
2023-02-07T20:33:52.089Z,486.90
2023-02-07T20:36:22.386Z,310.53
2023-02-07T20:38:50.584Z,460.77
2023-02-07T20:41:29.124Z,337.87
2023-02-07T20:43:59.325Z,547.17
2023-02-07T20:46:28.507Z,601.73
2023-02-07T20:48:58.397Z,309.20
2023-02-07T20:51:28.641Z,403.27
2023-02-07T20:53:57.862Z,417.43
2023-02-07T20:56:26.790Z,468.40
2023-02-07T20:58:55.276Z,772.90
2023-02-07T21:01:25.306Z,524.33
2023-02-07T21:03:55.293Z,265.97
2023-02-07T21:06:24.703Z,432.07
2023-02-07T21:09:00.300Z,376.60
2023-02-07T21:11:29.917Z,802.73
2023-02-07T21:13:58.048Z,623.33
2023-02-07T21:16:26.085Z,855.47
2023-02-07T21:18:54.127Z,564.20
2023-02-07T21:21:22.134Z,744.90
2023-02-07T21:23:50.165Z,529.67
2023-02-07T21:26:20.086Z,339.97
2023-02-07T21:28:48.730Z,702.10
2023-02-07T21:31:18.797Z,321.10
2023-02-07T21:33:49.614Z,337.60
2023-02-07T21:36:19.480Z,369.90
2023-02-07T21:38:50.239Z,440.53
2023-02-07T21:41:21.267Z,390.90
2023-02-07T21:43:49.496Z,240.03
2023-02-07T21:46:19.394Z,544.17
2023-02-07T21:48:48.841Z,520.87
2023-02-07T21:51:18.780Z,282.00
2023-02-07T21:53:46.862Z,563.20
2023-02-07T21:56:16.595Z,416.83
2023-02-07T21:58:46.003Z,640.73
2023-02-07T22:01:16.234Z,589.13
2023-02-07T22:03:46.059Z,865.53
2023-02-07T22:06:15.359Z,695.07
2023-02-07T22:08:50.028Z,448.13
2023-02-07T22:11:19.856Z,697.37
2023-02-07T22:13:52.288Z,697.27
2023-02-07T22:16:21.932Z,662.97
2023-02-07T22:18:50.285Z,463.57
2023-02-07T22:21:21.247Z,663.27
2023-02-07T22:23:49.593Z,798.47
2023-02-07T22:26:18.816Z,753.60
2023-02-07T22:28:48.950Z,733.93
2023-02-07T22:31:19.162Z,730.60
2023-02-07T22:33:48.010Z,835.17
2023-02-07T22:36:17.908Z,520.50
2023-02-07T22:38:45.924Z,757.57
2023-02-07T22:41:14.457Z,807.77
2023-02-07T22:43:42.841Z,493.50
2023-02-07T22:46:15.632Z,440.50
2023-02-07T22:48:44.349Z,437.37
2023-02-07T22:51:13.900Z,625.40
2023-02-07T22:53:42.387Z,485.50
2023-02-07T22:56:11.004Z,501.10
2023-02-07T22:58:39.381Z,469.53
2023-02-07T23:01:07.875Z,808.70
2023-02-07T23:03:37.315Z,850.07
2023-02-07T23:06:06.096Z,532.57
2023-02-07T23:08:34.104Z,790.73
2023-02-07T23:11:02.271Z,822.03
2023-02-07T23:13:30.352Z,853.43
2023-02-07T23:15:58.399Z,788.33
2023-02-07T23:18:26.626Z,756.23
2023-02-07T23:20:56.088Z,896.30
2023-02-07T23:23:24.330Z,828.50
2023-02-07T23:25:52.346Z,755.93
2023-02-07T23:28:20.376Z,949.47
2023-02-07T23:30:48.501Z,872.23
2023-02-07T23:33:16.569Z,843.67
2023-02-07T23:35:44.587Z,760.73
2023-02-07T23:38:13.948Z,912.03
2023-02-07T23:40:42.043Z,855.70
2023-02-07T23:43:10.051Z,877.90
2023-02-07T23:45:38.075Z,922.07
2023-02-07T23:48:07.294Z,915.73
2023-02-07T23:50:35.656Z,935.97
2023-02-07T23:53:03.820Z,881.50
2023-02-07T23:55:33.289Z,955.83
2023-02-07T23:58:01.342Z,999.90
